sensor_id;sensor_type;location;lat;lon;timestamp;pressure;altitude;pressure_sealevel;temperature;humidity
21753;BME280;11038;50.940;20.564;2022-09-17T00:00:55;96738.22;;;6.54;100.00
21753;BME280;11038;50.940;20.564;2022-09-17T00:02:37;96748.03;;;6.53;100.00
21753;BME280;11038;50.940;20.564;2022-09-17T00:04:10;96748.69;;;6.47;100.00
21753;BME280;11038;50.940;20.564;2022-09-17T00:05:43;96745.06;;;6.48;100.00
21753;BME280;11038;50.940;20.564;2022-09-17T00:07:15;96748.34;;;6.50;100.00
21753;BME280;11038;50.940;20.564;2022-09-17T00:08:49;96753.34;;;6.53;100.00
21753;BME280;11038;50.940;20.564;2022-09-17T00:10:21;96752.66;;;6.51;100.00
21753;BME280;11038;50.940;20.564;2022-09-17T00:11:54;96743.38;;;6.47;100.00
21753;BME280;11038;50.940;20.564;2022-09-17T00:13:26;96746.53;;;6.51;100.00
21753;BME280;11038;50.940;20.564;2022-09-17T00:14:58;96754.31;;;6.52;100.00
21753;BME280;11038;50.940;20.564;2022-09-17T00:16:39;96756.97;;;6.52;100.00
21753;BME280;11038;50.940;20.564;2022-09-17T00:18:13;96760.94;;;6.57;100.00
21753;BME280;11038;50.940;20.564;2022-09-17T00:19:46;96761.13;;;6.55;100.00
21753;BME280;11038;50.940;20.564;2022-09-17T00:21:19;96763.59;;;6.57;100.00
21753;BME280;11038;50.940;20.564;2022-09-17T00:22:53;96760.28;;;6.55;100.00
21753;BME280;11038;50.940;20.564;2022-09-17T00:24:25;96764.41;;;6.57;100.00
21753;BME280;11038;50.940;20.564;2022-09-17T00:25:57;96760.16;;;6.48;100.00
21753;BME280;11038;50.940;20.564;2022-09-17T00:27:30;96769.28;;;6.45;100.00
21753;BME280;11038;50.940;20.564;2022-09-17T00:29:04;96764.28;;;6.42;100.00
21753;BME280;11038;50.940;20.564;2022-09-17T00:30:41;96761.97;;;6.39;100.00
21753;BME280;11038;50.940;20.564;2022-09-17T00:32:14;96768.94;;;6.40;100.00
21753;BME280;11038;50.940;20.564;2022-09-17T00:33:47;96759.63;;;6.44;100.00
21753;BME280;11038;50.940;20.564;2022-09-17T00:35:20;96759.63;;;6.44;100.00
21753;BME280;11038;50.940;20.564;2022-09-17T00:36:52;96757.97;;;6.43;100.00
21753;BME280;11038;50.940;20.564;2022-09-17T00:38:26;96756.16;;;6.44;100.00
21753;BME280;11038;50.940;20.564;2022-09-17T00:39:58;96758.34;;;6.40;100.00
21753;BME280;11038;50.940;20.564;2022-09-17T00:41:33;96755.50;;;6.41;100.00
21753;BME280;11038;50.940;20.564;2022-09-17T00:43:10;96755.69;;;6.40;100.00
21753;BME280;11038;50.940;20.564;2022-09-17T00:44:54;96757.66;;;6.38;100.00
21753;BME280;11038;50.940;20.564;2022-09-17T00:46:41;96753.84;;;6.32;100.00
21753;BME280;11038;50.940;20.564;2022-09-17T00:48:14;96755.00;;;6.38;100.00
21753;BME280;11038;50.940;20.564;2022-09-17T00:49:51;96751.34;;;6.39;100.00
21753;BME280;11038;50.940;20.564;2022-09-17T00:51:44;96753.34;;;6.37;100.00
21753;BME280;11038;50.940;20.564;2022-09-17T00:53:21;96744.06;;;6.33;100.00
21753;BME280;11038;50.940;20.564;2022-09-17T00:55:07;96747.88;;;6.30;100.00
21753;BME280;11038;50.940;20.564;2022-09-17T00:56:43;96748.38;;;6.34;100.00
21753;BME280;11038;50.940;20.564;2022-09-17T00:58:20;96741.06;;;6.36;100.00
21753;BME280;11038;50.940;20.564;2022-09-17T00:59:54;96749.03;;;6.36;100.00
21753;BME280;11038;50.940;20.564;2022-09-17T01:01:28;96748.06;;;6.37;100.00
21753;BME280;11038;50.940;20.564;2022-09-17T01:03:01;96749.69;;;6.38;100.00
21753;BME280;11038;50.940;20.564;2022-09-17T01:04:33;96741.72;;;6.38;100.00
21753;BME280;11038;50.940;20.564;2022-09-17T01:10:19;96742.06;;;6.43;100.00
21753;BME280;11038;50.940;20.564;2022-09-17T01:15:54;96746.19;;;6.46;100.00
21753;BME280;11038;50.940;20.564;2022-09-17T01:28:48;96744.56;;;6.45;100.00
21753;BME280;11038;50.940;20.564;2022-09-17T01:36:39;96739.75;;;6.48;100.00
21753;BME280;11038;50.940;20.564;2022-09-17T01:38:27;96736.41;;;6.46;100.00
21753;BME280;11038;50.940;20.564;2022-09-17T01:40:24;96738.09;;;6.47;100.00
21753;BME280;11038;50.940;20.564;2022-09-17T01:42:52;96741.38;;;6.49;100.00
21753;BME280;11038;50.940;20.564;2022-09-17T01:44:51;96737.09;;;6.48;100.00
21753;BME280;11038;50.940;20.564;2022-09-17T01:46:33;96737.25;;;6.47;100.00
21753;BME280;11038;50.940;20.564;2022-09-17T01:48:15;96722.16;;;6.47;100.00
21753;BME280;11038;50.940;20.564;2022-09-17T01:49:56;96731.78;;;6.48;100.00
21753;BME280;11038;50.940;20.564;2022-09-17T01:51:42;96732.78;;;6.47;100.00
21753;BME280;11038;50.940;20.564;2022-09-17T01:53:23;96734.44;;;6.48;100.00
21753;BME280;11038;50.940;20.564;2022-09-17T01:55:03;96729.13;;;6.48;100.00
21753;BME280;11038;50.940;20.564;2022-09-17T01:56:55;96729.78;;;6.50;100.00
21753;BME280;11038;50.940;20.564;2022-09-17T01:58:35;96730.78;;;6.49;100.00
21753;BME280;11038;50.940;20.564;2022-09-17T02:00:13;96726.28;;;6.50;100.00
21753;BME280;11038;50.940;20.564;2022-09-17T02:01:56;96729.13;;;6.48;100.00
21753;BME280;11038;50.940;20.564;2022-09-17T02:03:40;96731.78;;;6.48;100.00
21753;BME280;11038;50.940;20.564;2022-09-17T02:07:18;96730.13;;;6.39;100.00
21753;BME280;11038;50.940;20.564;2022-09-17T02:09:00;96717.50;;;6.41;100.00
21753;BME280;11038;50.940;20.564;2022-09-17T02:10:41;96719.19;;;6.42;100.00
21753;BME280;11038;50.940;20.564;2022-09-17T02:12:23;96713.22;;;6.40;100.00
21753;BME280;11038;50.940;20.564;2022-09-17T02:14:07;96724.16;;;6.37;100.00
21753;BME280;11038;50.940;20.564;2022-09-17T02:16:15;96716.38;;;6.35;100.00
21753;BME280;11038;50.940;20.564;2022-09-17T02:17:55;96718.22;;;6.35;100.00
21753;BME280;11038;50.940;20.564;2022-09-17T02:19:34;96719.34;;;6.32;100.00
21753;BME280;11038;50.940;20.564;2022-09-17T02:23:26;96718.53;;;6.31;100.00
21753;BME280;11038;50.940;20.564;2022-09-17T02:25:23;96710.59;;;6.31;100.00
21753;BME280;11038;50.940;20.564;2022-09-17T02:27:04;96714.41;;;6.29;100.00
21753;BME280;11038;50.940;20.564;2022-09-17T02:28:53;96712.75;;;6.28;100.00
21753;BME280;11038;50.940;20.564;2022-09-17T02:30:28;96713.91;;;6.25;100.00
21753;BME280;11038;50.940;20.564;2022-09-17T02:32:02;96717.38;;;6.26;100.00
21753;BME280;11038;50.940;20.564;2022-09-17T02:33:36;96710.59;;;6.23;100.00
21753;BME280;11038;50.940;20.564;2022-09-17T02:35:11;96712.56;;;6.21;100.00
21753;BME280;11038;50.940;20.564;2022-09-17T02:36:45;96713.41;;;6.22;100.00
21753;BME280;11038;50.940;20.564;2022-09-17T02:38:24;96705.63;;;6.20;100.00
21753;BME280;11038;50.940;20.564;2022-09-17T02:39:57;96702.13;;;6.19;100.00
21753;BME280;11038;50.940;20.564;2022-09-17T02:42:07;96710.94;;;6.20;100.00
21753;BME280;11038;50.940;20.564;2022-09-17T02:44:41;96711.25;;;6.17;100.00
21753;BME280;11038;50.940;20.564;2022-09-17T02:55:55;96729.16;;;6.15;100.00
21753;BME280;11038;50.940;20.564;2022-09-17T03:00:16;96717.91;;;6.13;100.00
21753;BME280;11038;50.940;20.564;2022-09-17T03:03:40;96721.22;;;6.15;100.00
21753;BME280;11038;50.940;20.564;2022-09-17T03:05:17;96720.38;;;6.14;100.00
21753;BME280;11038;50.940;20.564;2022-09-17T03:06:52;96722.38;;;6.12;100.00
21753;BME280;11038;50.940;20.564;2022-09-17T03:08:33;96727.84;;;6.11;100.00
21753;BME280;11038;50.940;20.564;2022-09-17T03:10:07;96726.50;;;6.06;100.00
21753;BME280;11038;50.940;20.564;2022-09-17T03:11:39;96721.19;;;6.06;100.00
21753;BME280;11038;50.940;20.564;2022-09-17T03:13:12;96724.53;;;6.08;100.00
21753;BME280;11038;50.940;20.564;2022-09-17T03:14:44;96728.16;;;6.07;100.00
21753;BME280;11038;50.940;20.564;2022-09-17T03:16:16;96720.06;;;6.09;100.00
21753;BME280;11038;50.940;20.564;2022-09-17T03:17:49;96721.88;;;6.08;100.00
21753;BME280;11038;50.940;20.564;2022-09-17T03:19:25;96716.56;;;6.08;100.00
21753;BME280;11038;50.940;20.564;2022-09-17T03:20:59;96717.56;;;6.07;100.00
21753;BME280;11038;50.940;20.564;2022-09-17T03:22:31;96708.75;;;6.07;100.00
21753;BME280;11038;50.940;20.564;2022-09-17T03:24:03;96714.91;;;6.07;100.00
21753;BME280;11038;50.940;20.564;2022-09-17T03:25:36;96716.56;;;6.08;100.00
21753;BME280;11038;50.940;20.564;2022-09-17T03:27:08;96713.91;;;6.08;100.00
21753;BME280;11038;50.940;20.564;2022-09-17T03:28:41;96713.91;;;6.08;100.00
21753;BME280;11038;50.940;20.564;2022-09-17T03:30:13;96709.75;;;6.06;100.00
21753;BME280;11038;50.940;20.564;2022-09-17T03:31:46;96719.53;;;6.05;100.00
21753;BME280;11038;50.940;20.564;2022-09-17T03:33:18;96721.34;;;6.05;100.00
21753;BME280;11038;50.940;20.564;2022-09-17T03:34:50;96719.38;;;6.07;100.00
21753;BME280;11038;50.940;20.564;2022-09-17T03:36:24;96720.19;;;6.07;100.00
21753;BME280;11038;50.940;20.564;2022-09-17T03:37:57;96715.88;;;6.06;100.00
21753;BME280;11038;50.940;20.564;2022-09-17T03:39:30;96717.56;;;6.07;100.00
21753;BME280;11038;50.940;20.564;2022-09-17T03:41:05;96719.22;;;6.08;100.00
21753;BME280;11038;50.940;20.564;2022-09-17T03:42:40;96712.75;;;6.11;100.00
21753;BME280;11038;50.940;20.564;2022-09-17T03:44:13;96722.84;;;6.07;100.00
21753;BME280;11038;50.940;20.564;2022-09-17T03:45:46;96721.03;;;6.08;100.00
21753;BME280;11038;50.940;20.564;2022-09-17T03:47:20;96733.78;;;6.04;100.00
21753;BME280;11038;50.940;20.564;2022-09-17T03:48:52;96728.50;;;6.04;100.00
21753;BME280;11038;50.940;20.564;2022-09-17T03:50:25;96730.97;;;6.06;100.00
21753;BME280;11038;50.940;20.564;2022-09-17T03:51:57;96730.97;;;5.97;100.00
21753;BME280;11038;50.940;20.564;2022-09-17T03:53:29;96728.81;;;5.93;100.00
21753;BME280;11038;50.940;20.564;2022-09-17T03:55:02;96731.13;;;5.96;100.00
21753;BME280;11038;50.940;20.564;2022-09-17T03:56:35;96726.50;;;5.98;100.00
21753;BME280;11038;50.940;20.564;2022-09-17T03:58:07;96723.84;;;5.98;100.00
21753;BME280;11038;50.940;20.564;2022-09-17T03:59:40;96720.53;;;5.96;100.00
21753;BME280;11038;50.940;20.564;2022-09-17T04:01:12;96720.84;;;5.93;100.00
21753;BME280;11038;50.940;20.564;2022-09-17T04:02:45;96730.31;;;5.95;100.00
21753;BME280;11038;50.940;20.564;2022-09-17T04:04:17;96726.63;;;5.96;100.00
21753;BME280;11038;50.940;20.564;2022-09-17T04:05:50;96722.50;;;5.94;100.00
21753;BME280;11038;50.940;20.564;2022-09-17T04:07:22;96722.50;;;5.94;100.00
21753;BME280;11038;50.940;20.564;2022-09-17T04:08:54;96709.94;;;5.96;100.00
21753;BME280;11038;50.940;20.564;2022-09-17T04:10:28;96713.56;;;5.95;100.00
21753;BME280;11038;50.940;20.564;2022-09-17T04:12:00;96698.63;;;5.94;100.00
21753;BME280;11038;50.940;20.564;2022-09-17T04:13:32;96709.94;;;5.96;100.00
21753;BME280;11038;50.940;20.564;2022-09-17T04:15:06;96709.94;;;5.96;100.00
21753;BME280;11038;50.940;20.564;2022-09-17T04:16:38;96709.94;;;5.96;100.00
21753;BME280;11038;50.940;20.564;2022-09-17T04:18:11;96709.09;;;5.95;100.00
21753;BME280;11038;50.940;20.564;2022-09-17T04:19:44;96708.91;;;5.97;100.00
21753;BME280;11038;50.940;20.564;2022-09-17T04:21:16;96705.09;;;6.00;100.00
21753;BME280;11038;50.940;20.564;2022-09-17T04:22:48;96697.16;;;6.00;100.00
21753;BME280;11038;50.940;20.564;2022-09-17T04:24:20;96702.44;;;6.00;100.00
21753;BME280;11038;50.940;20.564;2022-09-17T04:25:52;96712.56;;;6.04;100.00
21753;BME280;11038;50.940;20.564;2022-09-17T04:27:25;96710.59;;;6.06;100.00
21753;BME280;11038;50.940;20.564;2022-09-17T04:28:57;96713.91;;;6.08;100.00
21753;BME280;11038;50.940;20.564;2022-09-17T04:30:29;96704.13;;;6.09;100.00
21753;BME280;11038;50.940;20.564;2022-09-17T04:32:02;96704.13;;;6.09;100.00
21753;BME280;11038;50.940;20.564;2022-09-17T04:33:34;96711.25;;;6.08;100.00
21753;BME280;11038;50.940;20.564;2022-09-17T04:35:08;96703.78;;;6.04;100.00
21753;BME280;11038;50.940;20.564;2022-09-17T04:36:40;96702.16;;;6.11;100.00
21753;BME280;11038;50.940;20.564;2022-09-17T04:38:13;96704.47;;;6.23;100.00
21753;BME280;11038;50.940;20.564;2022-09-17T04:39:49;96704.56;;;6.46;100.00
21753;BME280;11038;50.940;20.564;2022-09-17T04:41:21;96700.34;;;6.77;100.00
21753;BME280;11038;50.940;20.564;2022-09-17T04:42:55;96698.00;;;6.82;100.00
21753;BME280;11038;50.940;20.564;2022-09-17T04:44:27;96695.22;;;7.07;100.00
21753;BME280;11038;50.940;20.564;2022-09-17T04:46:00;96694.31;;;7.47;100.00
21753;BME280;11038;50.940;20.564;2022-09-17T04:47:32;96687.94;;;7.80;100.00
21753;BME280;11038;50.940;20.564;2022-09-17T04:49:04;96696.28;;;8.16;100.00
21753;BME280;11038;50.940;20.564;2022-09-17T04:50:36;96686.97;;;8.50;100.00
21753;BME280;11038;50.940;20.564;2022-09-17T04:52:09;96683.59;;;8.87;100.00
21753;BME280;11038;50.940;20.564;2022-09-17T04:53:41;96679.28;;;9.23;100.00
21753;BME280;11038;50.940;20.564;2022-09-17T04:55:14;96681.75;;;9.25;100.00
21753;BME280;11038;50.940;20.564;2022-09-17T04:56:47;96687.53;;;9.66;100.00
21753;BME280;11038;50.940;20.564;2022-09-17T04:58:19;96682.84;;;9.96;100.00
21753;BME280;11038;50.940;20.564;2022-09-17T04:59:52;96691.06;;;9.95;100.00
21753;BME280;11038;50.940;20.564;2022-09-17T05:01:24;96697.03;;;9.75;100.00
21753;BME280;11038;50.940;20.564;2022-09-17T05:02:57;96690.69;;;9.98;100.00
21753;BME280;11038;50.940;20.564;2022-09-17T05:04:30;96698.44;;;9.93;100.00
21753;BME280;11038;50.940;20.564;2022-09-17T05:06:02;96699.31;;;10.29;97.37
21753;BME280;11038;50.940;20.564;2022-09-17T05:07:38;96693.03;;;10.66;96.38
21753;BME280;11038;50.940;20.564;2022-09-17T05:09:10;96679.75;;;11.35;97.49
21753;BME280;11038;50.940;20.564;2022-09-17T05:10:43;96679.41;;;11.93;98.57
21753;BME280;11038;50.940;20.564;2022-09-17T05:12:15;96683.97;;;12.47;99.45
21753;BME280;11038;50.940;20.564;2022-09-17T05:13:48;96684.75;;;12.61;96.86
21753;BME280;11038;50.940;20.564;2022-09-17T05:15:22;96683.34;;;12.38;90.02
21753;BME280;11038;50.940;20.564;2022-09-17T05:16:55;96680.13;;;12.95;90.02
21753;BME280;11038;50.940;20.564;2022-09-17T05:18:27;96681.59;;;12.78;85.94
21753;BME280;11038;50.940;20.564;2022-09-17T05:20:00;96676.41;;;13.43;85.55
21753;BME280;11038;50.940;20.564;2022-09-17T05:21:32;96677.84;;;12.92;79.89
21753;BME280;11038;50.940;20.564;2022-09-17T05:23:05;96686.31;;;12.96;77.36
21753;BME280;11038;50.940;20.564;2022-09-17T05:24:37;96691.31;;;13.25;75.79
21753;BME280;11038;50.940;20.564;2022-09-17T05:26:10;96683.88;;;13.27;74.20
21753;BME280;11038;50.940;20.564;2022-09-17T05:27:43;96692.41;;;13.63;72.05
21753;BME280;11038;50.940;20.564;2022-09-17T05:29:15;96692.66;;;13.87;71.52
21753;BME280;11038;50.940;20.564;2022-09-17T05:30:47;96687.69;;;14.16;69.07
21753;BME280;11038;50.940;20.564;2022-09-17T05:32:20;96688.31;;;14.12;67.43
21753;BME280;11038;50.940;20.564;2022-09-17T05:33:52;96688.91;;;14.39;66.63
21753;BME280;11038;50.940;20.564;2022-09-17T05:35:24;96689.50;;;14.67;65.99
21753;BME280;11038;50.940;20.564;2022-09-17T05:36:57;96688.22;;;14.25;64.82
21753;BME280;11038;50.940;20.564;2022-09-17T05:38:30;96691.50;;;14.72;65.45
21753;BME280;11038;50.940;20.564;2022-09-17T05:40:05;96677.28;;;14.90;64.93
21753;BME280;11038;50.940;20.564;2022-09-17T05:41:40;96676.06;;;15.24;62.53
21753;BME280;11038;50.940;20.564;2022-09-17T05:43:12;96678.88;;;14.72;62.16
21753;BME280;11038;50.940;20.564;2022-09-17T05:44:45;96683.38;;;14.60;63.88
21753;BME280;11038;50.940;20.564;2022-09-17T05:46:17;96684.66;;;14.95;63.49
21753;BME280;11038;50.940;20.564;2022-09-17T05:47:58;96693.88;;;14.87;63.77
21753;BME280;11038;50.940;20.564;2022-09-17T05:49:30;96700.50;;;15.03;63.13
21753;BME280;11038;50.940;20.564;2022-09-17T05:51:03;96697.78;;;14.66;64.37
21753;BME280;11038;50.940;20.564;2022-09-17T05:52:35;96707.09;;;14.44;65.63
21753;BME280;11038;50.940;20.564;2022-09-17T05:54:08;96700.16;;;13.78;66.80
21753;BME280;11038;50.940;20.564;2022-09-17T05:55:40;96691.00;;;13.08;69.57
21753;BME280;11038;50.940;20.564;2022-09-17T05:57:13;96687.28;;;13.09;70.06
21753;BME280;11038;50.940;20.564;2022-09-17T05:58:47;96696.91;;;12.57;72.34
21753;BME280;11038;50.940;20.564;2022-09-17T06:00:19;96692.06;;;13.46;72.87
21753;BME280;11038;50.940;20.564;2022-09-17T06:01:51;96691.13;;;13.72;71.99
21753;BME280;11038;50.940;20.564;2022-09-17T06:03:24;96697.88;;;14.08;72.19
21753;BME280;11038;50.940;20.564;2022-09-17T06:04:56;96694.59;;;14.50;71.40
21753;BME280;11038;50.940;20.564;2022-09-17T06:06:32;96702.19;;;14.79;70.68
21753;BME280;11038;50.940;20.564;2022-09-17T06:08:05;96706.28;;;14.88;69.82
21753;BME280;11038;50.940;20.564;2022-09-17T06:09:38;96691.72;;;14.96;69.44
21753;BME280;11038;50.940;20.564;2022-09-17T06:11:12;96687.78;;;15.11;68.13
21753;BME280;11038;50.940;20.564;2022-09-17T06:12:45;96694.16;;;15.47;66.89
21753;BME280;11038;50.940;20.564;2022-09-17T06:14:17;96696.03;;;15.78;64.96
21753;BME280;11038;50.940;20.564;2022-09-17T06:15:53;96698.09;;;16.07;64.18
21753;BME280;11038;50.940;20.564;2022-09-17T06:17:25;96694.03;;;16.40;63.11
21753;BME280;11038;50.940;20.564;2022-09-17T06:18:57;96690.16;;;16.72;61.28
21753;BME280;11038;50.940;20.564;2022-09-17T06:20:30;96694.72;;;16.96;59.77
21753;BME280;11038;50.940;20.564;2022-09-17T06:22:02;96700.19;;;17.25;58.67
21753;BME280;11038;50.940;20.564;2022-09-17T06:23:36;96703.56;;;17.62;58.13
21753;BME280;11038;50.940;20.564;2022-09-17T06:25:09;96696.41;;;17.85;58.11
21753;BME280;11038;50.940;20.564;2022-09-17T06:26:41;96699.47;;;18.06;56.86
21753;BME280;11038;50.940;20.564;2022-09-17T06:28:13;96694.97;;;17.35;55.56
21753;BME280;11038;50.940;20.564;2022-09-17T06:29:45;96703.56;;;17.62;56.01
21753;BME280;11038;50.940;20.564;2022-09-17T06:31:18;96704.75;;;18.00;56.24
21753;BME280;11038;50.940;20.564;2022-09-17T06:32:50;96701.25;;;17.53;53.76
21753;BME280;11038;50.940;20.564;2022-09-17T06:34:23;96695.53;;;17.96;55.87
21753;BME280;11038;50.940;20.564;2022-09-17T06:36:00;96690.84;;;17.91;55.03
21753;BME280;11038;50.940;20.564;2022-09-17T06:37:33;96712.13;;;17.88;55.47
21753;BME280;11038;50.940;20.564;2022-09-17T06:39:07;96701.00;;;18.01;55.90
21753;BME280;11038;50.940;20.564;2022-09-17T06:40:40;96697.25;;;18.02;55.66
21753;BME280;11038;50.940;20.564;2022-09-17T06:42:13;96702.97;;;18.06;55.30
21753;BME280;11038;50.940;20.564;2022-09-17T06:43:45;96694.94;;;18.11;54.90
21753;BME280;11038;50.940;20.564;2022-09-17T06:45:17;96694.94;;;18.11;55.47
21753;BME280;11038;50.940;20.564;2022-09-17T06:46:49;96692.34;;;18.34;55.38
21753;BME280;11038;50.940;20.564;2022-09-17T06:48:23;96693.50;;;18.38;53.77
21753;BME280;11038;50.940;20.564;2022-09-17T06:49:55;96689.09;;;18.32;54.14
21753;BME280;11038;50.940;20.564;2022-09-17T06:51:28;96693.84;;;18.24;53.94
21753;BME280;11038;50.940;20.564;2022-09-17T06:53:00;96697.75;;;18.17;53.54
21753;BME280;11038;50.940;20.564;2022-09-17T06:54:32;96690.28;;;18.07;54.52
21753;BME280;11038;50.940;20.564;2022-09-17T06:56:06;96689.38;;;18.18;54.57
21753;BME280;11038;50.940;20.564;2022-09-17T06:57:39;96676.19;;;18.04;54.05
21753;BME280;11038;50.940;20.564;2022-09-17T06:59:11;96679.09;;;18.32;54.81
21753;BME280;11038;50.940;20.564;2022-09-17T07:00:44;96670.81;;;18.39;55.16
21753;BME280;11038;50.940;20.564;2022-09-17T07:02:16;96676.94;;;18.52;55.19
21753;BME280;11038;50.940;20.564;2022-09-17T07:03:48;96672.16;;;18.59;55.03
21753;BME280;11038;50.940;20.564;2022-09-17T07:05:21;96680.84;;;18.61;54.76
21753;BME280;11038;50.940;20.564;2022-09-17T07:06:53;96673.13;;;18.30;54.41
21753;BME280;11038;50.940;20.564;2022-09-17T07:08:26;96675.28;;;18.51;55.57
21753;BME280;11038;50.940;20.564;2022-09-17T07:09:58;96679.06;;;18.50;55.60
21753;BME280;11038;50.940;20.564;2022-09-17T07:11:30;96684.47;;;18.50;55.61
21753;BME280;11038;50.940;20.564;2022-09-17T07:13:02;96687.16;;;18.50;55.21
21753;BME280;11038;50.940;20.564;2022-09-17T07:14:35;96693.09;;;18.46;55.63
21753;BME280;11038;50.940;20.564;2022-09-17T07:16:09;96699.56;;;18.45;54.73
21753;BME280;11038;50.940;20.564;2022-09-17T07:17:42;96705.47;;;18.42;54.96
21753;BME280;11038;50.940;20.564;2022-09-17T07:19:15;96701.34;;;18.22;54.24
21753;BME280;11038;50.940;20.564;2022-09-17T07:20:56;96705.34;;;18.02;54.90
21753;BME280;11038;50.940;20.564;2022-09-17T07:22:28;96701.75;;;17.97;55.23
21753;BME280;11038;50.940;20.564;2022-09-17T07:24:01;96699.59;;;17.99;55.44
21753;BME280;11038;50.940;20.564;2022-09-17T07:25:34;96709.69;;;17.86;55.17
21753;BME280;11038;50.940;20.564;2022-09-17T07:27:07;96685.75;;;17.78;56.16
21753;BME280;11038;50.940;20.564;2022-09-17T07:28:40;96707.19;;;17.85;56.34
21753;BME280;11038;50.940;20.564;2022-09-17T07:30:13;96691.81;;;17.85;56.68
21753;BME280;11038;50.940;20.564;2022-09-17T07:31:46;96686.06;;;17.81;56.28
21753;BME280;11038;50.940;20.564;2022-09-17T07:33:23;96687.38;;;17.62;54.78
21753;BME280;11038;50.940;20.564;2022-09-17T07:34:56;96685.84;;;17.54;54.94
21753;BME280;11038;50.940;20.564;2022-09-17T07:36:28;96690.56;;;17.58;54.86
21753;BME280;11038;50.940;20.564;2022-09-17T07:38:01;96690.13;;;17.50;54.21
21753;BME280;11038;50.940;20.564;2022-09-17T07:39:34;96694.06;;;17.59;54.14
21753;BME280;11038;50.940;20.564;2022-09-17T07:41:10;96693.19;;;17.70;54.53
21753;BME280;11038;50.940;20.564;2022-09-17T07:42:46;96684.22;;;17.53;53.78
21753;BME280;11038;50.940;20.564;2022-09-17T07:44:18;96685.06;;;17.70;54.65
21753;BME280;11038;50.940;20.564;2022-09-17T07:45:51;96680.50;;;17.71;53.98
21753;BME280;11038;50.940;20.564;2022-09-17T07:47:24;96683.59;;;17.63;53.80
21753;BME280;11038;50.940;20.564;2022-09-17T07:48:56;96672.16;;;17.73;52.92
21753;BME280;11038;50.940;20.564;2022-09-17T07:50:28;96677.41;;;17.79;52.85
21753;BME280;11038;50.940;20.564;2022-09-17T07:52:03;96670.94;;;17.80;52.50
21753;BME280;11038;50.940;20.564;2022-09-17T07:53:37;96673.81;;;17.91;52.75
21753;BME280;11038;50.940;20.564;2022-09-17T07:55:09;96678.97;;;18.10;52.27
21753;BME280;11038;50.940;20.564;2022-09-17T07:56:42;96683.53;;;18.21;52.22
21753;BME280;11038;50.940;20.564;2022-09-17T07:58:14;96678.75;;;18.29;51.29
21753;BME280;11038;50.940;20.564;2022-09-17T07:59:46;96692.00;;;18.47;51.47
21753;BME280;11038;50.940;20.564;2022-09-17T08:01:19;96688.06;;;18.55;50.86
21753;BME280;11038;50.940;20.564;2022-09-17T08:02:55;96694.47;;;18.49;49.91
21753;BME280;11038;50.940;20.564;2022-09-17T08:04:28;96692.09;;;18.53;50.09
21753;BME280;11038;50.940;20.564;2022-09-17T08:06:06;96705.44;;;18.59;50.01
21753;BME280;11038;50.940;20.564;2022-09-17T08:07:39;96696.41;;;18.71;49.67
21753;BME280;11038;50.940;20.564;2022-09-17T08:09:11;96692.81;;;18.65;49.41
21753;BME280;11038;50.940;20.564;2022-09-17T08:10:44;96697.59;;;18.80;49.91
21753;BME280;11038;50.940;20.564;2022-09-17T08:12:16;96686.69;;;18.92;50.11
21753;BME280;11038;50.940;20.564;2022-09-17T08:13:52;96700.81;;;18.77;49.82
21753;BME280;11038;50.940;20.564;2022-09-17T08:15:25;96696.59;;;18.64;49.14
21753;BME280;11038;50.940;20.564;2022-09-17T08:16:57;96698.66;;;18.57;49.34
21753;BME280;11038;50.940;20.564;2022-09-17T08:18:31;96708.97;;;18.60;49.36
21753;BME280;11038;50.940;20.564;2022-09-17T08:20:04;96707.03;;;18.78;49.78
21753;BME280;11038;50.940;20.564;2022-09-17T08:21:37;96707.25;;;18.94;50.46
21753;BME280;11038;50.940;20.564;2022-09-17T08:23:09;96704.47;;;18.88;50.10
21753;BME280;11038;50.940;20.564;2022-09-17T08:24:41;96705.91;;;18.74;49.95
21753;BME280;11038;50.940;20.564;2022-09-17T08:26:19;96702.81;;;18.47;50.20
21753;BME280;11038;50.940;20.564;2022-09-17T08:27:55;96697.00;;;18.39;49.99
21753;BME280;11038;50.940;20.564;2022-09-17T08:29:30;96706.44;;;18.36;49.58
21753;BME280;11038;50.940;20.564;2022-09-17T08:31:07;96697.41;;;18.13;49.69
21753;BME280;11038;50.940;20.564;2022-09-17T08:32:40;96704.97;;;18.11;50.26
21753;BME280;11038;50.940;20.564;2022-09-17T08:34:13;96702.75;;;18.08;50.26
21753;BME280;11038;50.940;20.564;2022-09-17T08:35:55;96709.34;;;18.17;50.56
21753;BME280;11038;50.940;20.564;2022-09-17T08:37:31;96695.59;;;18.01;50.10
21753;BME280;11038;50.940;20.564;2022-09-17T08:39:03;96691.66;;;18.09;50.70
21753;BME280;11038;50.940;20.564;2022-09-17T08:40:51;96706.06;;;17.80;50.67
21753;BME280;11038;50.940;20.564;2022-09-17T08:42:50;96703.38;;;17.80;50.92
21753;BME280;11038;50.940;20.564;2022-09-17T08:46:09;96699.50;;;17.76;52.62
21753;BME280;11038;50.940;20.564;2022-09-17T08:47:42;96689.69;;;17.70;52.46
21753;BME280;11038;50.940;20.564;2022-09-17T08:49:32;96681.66;;;17.75;52.33
21753;BME280;11038;50.940;20.564;2022-09-17T08:53:57;96691.56;;;17.87;52.73
21753;BME280;11038;50.940;20.564;2022-09-17T08:56:12;96694.09;;;17.76;52.98
21753;BME280;11038;50.940;20.564;2022-09-17T09:06:18;96696.44;;;17.02;53.49
21753;BME280;11038;50.940;20.564;2022-09-17T09:08:32;96706.34;;;16.84;54.51
21753;BME280;11038;50.940;20.564;2022-09-17T09:10:25;96698.28;;;16.60;54.99
21753;BME280;11038;50.940;20.564;2022-09-17T09:12:09;96692.75;;;16.55;55.60
21753;BME280;11038;50.940;20.564;2022-09-17T09:14:19;96698.28;;;16.36;56.52
21753;BME280;11038;50.940;20.564;2022-09-17T09:16:01;96699.53;;;16.21;56.45
21753;BME280;11038;50.940;20.564;2022-09-17T09:17:42;96698.47;;;16.10;57.26